createdAt,value
2024-05-09T00:00:44.330Z,8.18
2024-05-09T00:03:31.399Z,8.20
2024-05-09T00:05:58.632Z,8.19
2024-05-09T00:08:25.444Z,8.18
2024-05-09T00:10:52.755Z,8.16
2024-05-09T00:13:19.952Z,8.17
2024-05-09T00:15:46.683Z,8.16
2024-05-09T00:18:13.768Z,8.17
2024-05-09T00:20:41.508Z,8.16
2024-05-09T00:23:15.662Z,8.15
2024-05-09T00:25:43.702Z,8.13
2024-05-09T00:28:11.925Z,8.13
2024-05-09T00:30:38.779Z,8.12
2024-05-09T00:33:07.008Z,8.13
2024-05-09T00:35:35.401Z,8.14
2024-05-09T00:38:02.485Z,8.14
2024-05-09T00:40:40.845Z,8.14
2024-05-09T00:43:11.092Z,8.15
2024-05-09T00:45:38.325Z,8.15
2024-05-09T00:48:08.409Z,8.17
2024-05-09T00:50:40.058Z,8.17
2024-05-09T00:53:08.253Z,8.17
2024-05-09T00:55:37.368Z,8.17
2024-05-09T00:58:05.660Z,8.16
2024-05-09T01:00:38.829Z,8.15
2024-05-09T01:03:09.747Z,8.12
2024-05-09T01:05:38.834Z,8.08
2024-05-09T01:08:06.542Z,8.05
2024-05-09T01:10:35.247Z,8.02
2024-05-09T01:13:04.403Z,8.00
2024-05-09T01:15:31.625Z,7.96
2024-05-09T01:18:01.499Z,7.92
2024-05-09T01:20:39.169Z,7.92
2024-05-09T01:23:09.707Z,7.92
2024-05-09T01:25:37.414Z,7.92
2024-05-09T01:28:05.032Z,7.89
2024-05-09T01:30:35.415Z,7.84
2024-05-09T01:33:06.771Z,7.80
2024-05-09T01:35:35.565Z,7.76
2024-05-09T01:38:02.552Z,7.71
2024-05-09T01:40:37.145Z,7.71
2024-05-09T01:43:07.371Z,7.73
2024-05-09T01:45:34.460Z,7.76
2024-05-09T01:48:02.260Z,7.81
2024-05-09T01:50:37.886Z,7.83
2024-05-09T01:53:10.189Z,7.85
2024-05-09T01:55:37.592Z,7.85
2024-05-09T01:58:04.617Z,7.84
2024-05-09T02:00:38.742Z,7.83
2024-05-09T02:03:15.637Z,7.82
2024-05-09T02:05:49.398Z,7.82
2024-05-09T02:08:21.337Z,7.82
2024-05-09T02:10:49.686Z,7.82
2024-05-09T02:13:17.197Z,7.81
2024-05-09T02:15:44.779Z,7.80
2024-05-09T02:18:12.216Z,7.76
2024-05-09T02:20:40.799Z,7.76
2024-05-09T02:23:09.185Z,7.76
2024-05-09T02:25:36.206Z,7.75
2024-05-09T02:28:03.076Z,7.74
2024-05-09T02:30:38.464Z,7.73
2024-05-09T02:33:09.940Z,7.74
2024-05-09T02:35:38.460Z,7.74
2024-05-09T02:38:05.557Z,7.75
2024-05-09T02:40:36.968Z,7.77
2024-05-09T02:43:07.130Z,7.80
2024-05-09T02:45:34.235Z,7.83
2024-05-09T02:48:01.877Z,7.83
2024-05-09T02:50:34.756Z,7.83
2024-05-09T02:53:09.623Z,7.82
2024-05-09T02:55:40.863Z,7.81
2024-05-09T02:58:08.170Z,7.78
2024-05-09T03:00:39.584Z,7.76
2024-05-09T03:03:11.433Z,7.75
2024-05-09T03:05:41.607Z,7.74
2024-05-09T03:08:08.711Z,7.74
2024-05-09T03:10:38.328Z,7.73
2024-05-09T03:13:07.753Z,7.71
2024-05-09T03:15:34.761Z,7.72
2024-05-09T03:18:01.977Z,7.71
2024-05-09T03:20:34.101Z,7.71
2024-05-09T03:23:03.597Z,7.69
2024-05-09T03:25:30.911Z,7.67
2024-05-09T03:27:57.688Z,7.70
2024-05-09T03:30:36.117Z,7.71
2024-05-09T03:33:13.366Z,7.75
2024-05-09T03:35:41.230Z,7.76
2024-05-09T03:38:08.567Z,7.77
2024-05-09T03:40:35.621Z,7.76
2024-05-09T03:43:02.480Z,7.78
2024-05-09T03:45:29.209Z,7.78
2024-05-09T03:47:56.193Z,7.78
2024-05-09T03:50:30.050Z,7.79
2024-05-09T03:53:01.592Z,7.79
2024-05-09T03:55:28.746Z,7.76
2024-05-09T03:57:55.447Z,7.73
2024-05-09T04:00:31.055Z,7.70
2024-05-09T04:03:06.411Z,7.64
2024-05-09T04:05:35.266Z,7.63
2024-05-09T04:08:02.465Z,7.60
2024-05-09T04:10:33.479Z,7.60
2024-05-09T04:13:02.786Z,7.64
2024-05-09T04:15:29.817Z,7.69
2024-05-09T04:17:57.192Z,7.71
2024-05-09T04:20:33.593Z,7.70
2024-05-09T04:23:07.162Z,7.72
2024-05-09T04:25:34.973Z,7.74
2024-05-09T04:28:01.900Z,7.76
2024-05-09T04:30:37.597Z,7.78
2024-05-09T04:33:10.296Z,7.79
2024-05-09T04:35:39.334Z,7.80
2024-05-09T04:38:06.619Z,7.80
2024-05-09T04:40:36.329Z,7.84
2024-05-09T04:43:14.902Z,7.85
2024-05-09T04:45:41.770Z,7.90
2024-05-09T04:48:09.052Z,7.94
2024-05-09T04:50:38.761Z,7.99
2024-05-09T04:53:11.060Z,8.03
2024-05-09T04:55:38.884Z,8.07
2024-05-09T04:58:08.408Z,8.13
2024-05-09T05:00:37.645Z,8.19
2024-05-09T05:03:08.375Z,8.25
2024-05-09T05:05:40.738Z,8.32
2024-05-09T05:08:12.142Z,8.40
2024-05-09T05:10:39.161Z,8.50
2024-05-09T05:13:24.892Z,8.61
2024-05-09T05:15:55.592Z,8.72
2024-05-09T05:18:23.607Z,8.81
2024-05-09T05:20:50.780Z,8.88
2024-05-09T05:23:22.141Z,8.99
2024-05-09T05:25:51.270Z,9.09
2024-05-09T05:28:19.309Z,9.23
2024-05-09T05:30:46.704Z,9.38
2024-05-09T05:33:15.142Z,9.56
2024-05-09T05:35:42.605Z,9.73
2024-05-09T05:38:10.779Z,9.90
2024-05-09T05:40:39.637Z,10.07
2024-05-09T05:43:09.999Z,10.18
2024-05-09T05:45:37.606Z,10.29
2024-05-09T05:48:06.370Z,10.38
2024-05-09T05:50:36.632Z,10.49
2024-05-09T05:53:07.512Z,10.64
2024-05-09T05:55:36.309Z,10.79
2024-05-09T05:58:03.255Z,10.97
2024-05-09T06:00:37.836Z,11.12
2024-05-09T06:03:07.700Z,11.35
2024-05-09T06:05:36.410Z,11.55
2024-05-09T06:08:03.617Z,11.75
2024-05-09T06:10:37.741Z,11.96
2024-05-09T06:13:07.787Z,12.12
2024-05-09T06:15:34.769Z,12.28
2024-05-09T06:18:01.979Z,12.47
2024-05-09T06:20:35.747Z,12.65
2024-05-09T06:23:06.803Z,12.77
2024-05-09T06:25:34.752Z,12.90
2024-05-09T06:28:02.216Z,13.00
2024-05-09T06:30:37.863Z,13.07
2024-05-09T06:33:10.093Z,13.09
2024-05-09T06:35:38.461Z,13.07
2024-05-09T06:38:08.766Z,13.10
2024-05-09T06:40:38.752Z,13.12
2024-05-09T06:43:11.519Z,13.20
2024-05-09T06:45:39.427Z,13.37
2024-05-09T06:48:07.269Z,13.55
2024-05-09T06:50:37.933Z,13.67
2024-05-09T06:53:06.956Z,13.72
2024-05-09T06:55:33.961Z,13.81
2024-05-09T06:58:00.854Z,13.98
2024-05-09T07:00:35.450Z,14.14
2024-05-09T07:03:19.484Z,14.34
2024-05-09T07:05:48.324Z,14.53
2024-05-09T07:08:16.688Z,14.66
2024-05-09T07:10:44.287Z,14.82
2024-05-09T07:13:12.913Z,14.97
2024-05-09T07:15:41.473Z,15.16
2024-05-09T07:18:13.242Z,15.35
2024-05-09T07:20:41.217Z,15.56
2024-05-09T07:23:09.926Z,15.69
2024-05-09T07:25:37.575Z,15.81
2024-05-09T07:28:04.729Z,15.98
2024-05-09T07:30:34.341Z,16.09
2024-05-09T07:33:03.550Z,16.18
2024-05-09T07:35:31.211Z,16.36
2024-05-09T07:37:58.544Z,16.49
2024-05-09T07:40:33.112Z,16.57
2024-05-09T07:43:13.773Z,16.59
2024-05-09T07:45:50.428Z,16.62
2024-05-09T07:52:38.596Z,16.82
2024-05-09T07:53:46.553Z,16.78
2024-05-09T07:56:17.469Z,16.67
2024-05-09T07:58:45.678Z,16.61
2024-05-09T08:01:12.837Z,16.65
2024-05-09T08:03:39.978Z,16.69
2024-05-09T08:06:06.994Z,16.66
2024-05-09T08:08:33.752Z,16.68
2024-05-09T08:11:02.514Z,16.71
2024-05-09T08:13:29.433Z,16.85
2024-05-09T08:15:56.430Z,16.99
2024-05-09T08:18:23.723Z,17.15
2024-05-09T08:20:52.136Z,17.32
2024-05-09T08:23:19.061Z,17.48
2024-05-09T08:25:45.944Z,17.59
2024-05-09T08:28:12.929Z,17.68
2024-05-09T08:30:40.012Z,17.63
2024-05-09T08:33:07.795Z,17.38
2024-05-09T08:35:35.777Z,17.26
2024-05-09T08:38:04.425Z,17.30
2024-05-09T08:40:36.880Z,17.42
2024-05-09T08:43:07.931Z,17.51
2024-05-09T08:45:36.379Z,17.57
2024-05-09T08:48:07.868Z,17.61
2024-05-09T08:50:39.116Z,17.69
2024-05-09T08:53:09.994Z,17.62
2024-05-09T08:55:40.707Z,17.60
2024-05-09T08:58:16.187Z,17.58
2024-05-09T09:00:44.994Z,17.56
2024-05-09T09:03:18.580Z,17.69
2024-05-09T09:06:14.475Z,17.79
2024-05-09T09:08:41.367Z,18.02
2024-05-09T09:11:08.218Z,18.24
2024-05-09T09:13:34.993Z,18.47
2024-05-09T09:16:02.774Z,18.60
2024-05-09T09:18:30.259Z,18.74
2024-05-09T09:20:57.602Z,18.88
2024-05-09T09:23:27.772Z,18.98
2024-05-09T09:25:58.530Z,18.97
2024-05-09T09:28:25.449Z,18.92
2024-05-09T09:30:52.275Z,19.00
2024-05-09T09:33:19.193Z,19.13
2024-05-09T09:35:46.551Z,19.24
2024-05-09T09:38:18.173Z,19.41
2024-05-09T09:40:49.552Z,19.52
2024-05-09T09:43:22.351Z,19.41
2024-05-09T09:45:51.972Z,19.37
2024-05-09T09:48:21.469Z,19.33
2024-05-09T09:50:51.011Z,19.22
2024-05-09T09:53:19.337Z,19.22
2024-05-09T09:55:47.085Z,19.34
2024-05-09T09:58:16.933Z,19.52
2024-05-09T10:00:44.868Z,19.71
2024-05-09T10:03:12.021Z,19.84
2024-05-09T10:05:42.055Z,19.84
2024-05-09T10:08:12.326Z,19.99
2024-05-09T10:10:39.983Z,20.13
2024-05-09T10:13:07.877Z,20.12
2024-05-09T10:15:51.843Z,20.14
2024-05-09T10:18:27.258Z,20.18
2024-05-09T10:20:56.556Z,20.22
2024-05-09T10:23:27.802Z,20.22
2024-05-09T10:25:59.845Z,20.12
2024-05-09T10:28:31.471Z,19.92
2024-05-09T10:31:09.438Z,19.69
2024-05-09T10:33:45.120Z,19.48
2024-05-09T10:36:13.630Z,19.36
2024-05-09T10:38:42.700Z,19.35
2024-05-09T10:41:10.304Z,19.37
2024-05-09T10:43:40.921Z,19.41
2024-05-09T10:46:08.576Z,19.49
2024-05-09T10:48:36.824Z,19.56
2024-05-09T10:51:04.627Z,19.47
2024-05-09T10:53:32.068Z,19.33
2024-05-09T10:56:00.362Z,19.20
2024-05-09T10:58:28.080Z,19.14
2024-05-09T11:00:58.525Z,19.18
2024-05-09T11:03:25.933Z,19.24
2024-05-09T11:05:53.433Z,19.33
2024-05-09T11:08:24.206Z,19.46
2024-05-09T11:10:52.661Z,19.70
2024-05-09T11:13:30.729Z,19.98
2024-05-09T11:15:58.738Z,20.20
2024-05-09T11:18:28.933Z,20.19
2024-05-09T11:20:58.258Z,20.17
2024-05-09T11:23:27.415Z,20.31
2024-05-09T11:25:56.188Z,20.49
2024-05-09T11:28:23.795Z,20.54
2024-05-09T11:30:51.550Z,20.55
2024-05-09T11:33:19.624Z,20.62
2024-05-09T11:35:47.271Z,20.72
2024-05-09T11:38:14.325Z,20.84
2024-05-09T11:40:41.762Z,20.78
2024-05-09T11:43:08.748Z,20.77
2024-05-09T11:45:35.592Z,20.83
2024-05-09T11:48:03.856Z,20.83
2024-05-09T11:50:35.308Z,20.88
2024-05-09T11:53:03.264Z,20.98
2024-05-09T11:55:30.694Z,21.10
2024-05-09T11:57:57.881Z,21.18
2024-05-09T12:00:33.024Z,21.21
2024-05-09T12:03:04.973Z,21.25
2024-05-09T12:05:32.853Z,21.29
2024-05-09T12:08:00.531Z,21.35
2024-05-09T12:10:33.143Z,21.44
2024-05-09T12:13:04.935Z,21.57
2024-05-09T12:15:33.756Z,21.67
2024-05-09T12:18:03.398Z,21.64
2024-05-09T12:20:36.796Z,21.53
2024-05-09T12:23:07.095Z,21.51
2024-05-09T12:25:34.886Z,21.46
2024-05-09T12:28:02.009Z,21.36
2024-05-09T12:30:36.260Z,21.46
2024-05-09T12:33:07.983Z,21.63
2024-05-09T12:35:35.154Z,21.72
2024-05-09T12:38:02.946Z,21.68
2024-05-09T12:40:35.858Z,21.71
2024-05-09T12:43:09.124Z,21.69
2024-05-09T12:45:37.644Z,21.79
2024-05-09T12:48:08.182Z,21.76
2024-05-09T12:50:35.951Z,21.60
2024-05-09T12:53:03.978Z,21.59
2024-05-09T12:55:40.385Z,21.56
2024-05-09T12:58:16.748Z,21.47
2024-05-09T13:00:44.912Z,21.43
2024-05-09T13:03:12.065Z,21.47
2024-05-09T13:05:41.115Z,21.54
2024-05-09T13:08:08.588Z,21.60
2024-05-09T13:10:35.920Z,21.64
2024-05-09T13:13:02.878Z,21.53
2024-05-09T13:15:31.272Z,21.41
2024-05-09T13:18:02.035Z,21.30
2024-05-09T13:20:34.082Z,21.23
2024-05-09T13:23:05.417Z,21.20
2024-05-09T13:25:34.813Z,21.25
2024-05-09T13:28:06.287Z,21.32
2024-05-09T13:30:39.796Z,21.21
2024-05-09T13:33:09.406Z,21.14
2024-05-09T13:35:36.650Z,21.08
2024-05-09T13:38:04.452Z,20.97
2024-05-09T13:40:34.820Z,20.84
2024-05-09T13:43:06.204Z,20.82
2024-05-09T13:45:33.962Z,20.78
2024-05-09T13:48:02.348Z,20.79
2024-05-09T13:50:34.566Z,20.79
2024-05-09T13:53:05.103Z,20.79
2024-05-09T13:55:32.899Z,20.80
2024-05-09T13:58:00.045Z,20.75
2024-05-09T14:00:38.035Z,20.71
2024-05-09T14:03:11.848Z,20.63
2024-05-09T14:05:39.275Z,20.50
2024-05-09T14:08:06.869Z,20.34
2024-05-09T14:10:34.559Z,20.31
2024-05-09T14:13:01.711Z,20.25
2024-05-09T14:15:28.706Z,20.15
2024-05-09T14:17:55.739Z,20.09
2024-05-09T14:20:30.715Z,20.00
2024-05-09T14:23:00.841Z,19.94
2024-05-09T14:25:29.683Z,19.88
2024-05-09T14:27:59.972Z,19.90
2024-05-09T14:30:34.684Z,19.90
2024-05-09T14:33:06.350Z,19.82
2024-05-09T14:35:34.045Z,19.70
2024-05-09T14:38:01.268Z,19.63
2024-05-09T14:40:38.804Z,19.57
2024-05-09T14:43:14.241Z,19.48
2024-05-09T14:45:43.114Z,19.36
2024-05-09T14:48:11.605Z,19.27
2024-05-09T14:50:40.291Z,19.27
2024-05-09T14:53:10.081Z,19.20
2024-05-09T14:55:38.876Z,19.13
2024-05-09T14:58:07.041Z,19.12
2024-05-09T15:00:41.651Z,19.14
2024-05-09T15:03:11.824Z,19.10
2024-05-09T15:05:39.099Z,19.09
2024-05-09T15:08:07.262Z,19.09
2024-05-09T15:10:36.249Z,19.07
2024-05-09T15:13:04.862Z,19.03
2024-05-09T15:15:32.003Z,18.98
2024-05-09T15:17:59.269Z,18.92
2024-05-09T15:20:33.272Z,18.85
2024-05-09T15:23:03.539Z,18.80
2024-05-09T15:25:30.849Z,18.76
2024-05-09T15:27:57.970Z,18.74
2024-05-09T15:30:30.246Z,18.67
2024-05-09T15:33:00.854Z,18.60
2024-05-09T15:35:28.110Z,18.56
2024-05-09T15:37:55.712Z,18.51
2024-05-09T15:40:34.428Z,18.47
2024-05-09T15:43:06.180Z,18.44
2024-05-09T15:45:34.243Z,18.40
2024-05-09T15:48:02.562Z,18.35
2024-05-09T15:50:36.969Z,18.29
2024-05-09T15:53:08.421Z,18.25
2024-05-09T15:55:36.314Z,18.19
2024-05-09T15:58:04.625Z,18.12
2024-05-09T16:00:37.733Z,18.05
2024-05-09T16:03:09.411Z,18.01
2024-05-09T16:05:37.224Z,17.99
2024-05-09T16:08:05.385Z,17.97
2024-05-09T16:10:33.972Z,17.95
2024-05-09T16:13:02.826Z,17.92
2024-05-09T16:15:30.515Z,17.88
2024-05-09T16:17:57.720Z,17.84
2024-05-09T16:20:34.408Z,17.79
2024-05-09T16:23:07.941Z,17.70
2024-05-09T16:25:35.341Z,17.67
2024-05-09T16:28:06.377Z,17.62
2024-05-09T16:30:36.477Z,17.58
2024-05-09T16:33:04.958Z,17.55
2024-05-09T16:35:32.815Z,17.53
2024-05-09T16:38:02.058Z,17.48
2024-05-09T16:40:36.447Z,17.40
2024-05-09T16:43:07.552Z,17.35
2024-05-09T16:45:35.438Z,17.32
2024-05-09T16:48:03.594Z,17.27
2024-05-09T16:50:33.810Z,17.24
2024-05-09T16:53:03.871Z,17.22
2024-05-09T16:55:31.263Z,17.17
2024-05-09T16:57:58.525Z,17.13
2024-05-09T17:00:35.753Z,17.07
2024-05-09T17:03:09.769Z,17.03
2024-05-09T17:05:37.647Z,16.98
2024-05-09T17:08:05.442Z,16.94
2024-05-09T17:10:34.371Z,16.90
2024-05-09T17:13:07.110Z,16.86
2024-05-09T17:15:36.811Z,16.80
2024-05-09T17:18:05.401Z,16.74
2024-05-09T17:20:35.659Z,16.68
2024-05-09T17:23:12.080Z,16.63
2024-05-09T17:25:39.795Z,16.57
2024-05-09T17:28:08.239Z,16.52
2024-05-09T17:30:38.428Z,16.49
2024-05-09T17:33:08.796Z,16.45
2024-05-09T17:35:37.041Z,16.40
2024-05-09T17:38:05.655Z,16.36
2024-05-09T17:40:35.895Z,16.32
2024-05-09T17:43:06.274Z,16.27
2024-05-09T17:45:34.305Z,16.23
2024-05-09T17:48:01.977Z,16.19
2024-05-09T17:50:35.502Z,16.15
2024-05-09T17:53:08.371Z,16.09
2024-05-09T17:55:36.144Z,16.04
2024-05-09T17:58:04.729Z,15.98
2024-05-09T18:00:38.149Z,15.92
2024-05-09T18:03:10.403Z,15.86
2024-05-09T18:05:38.187Z,15.82
2024-05-09T18:08:06.782Z,15.77
2024-05-09T18:10:37.894Z,15.73
2024-05-09T18:13:11.542Z,15.66
2024-05-09T18:15:39.796Z,15.61
2024-05-09T18:18:07.658Z,15.55
2024-05-09T18:20:42.165Z,15.48
2024-05-09T18:23:15.313Z,15.40
2024-05-09T18:25:43.607Z,15.33
2024-05-09T18:28:10.689Z,15.27
2024-05-09T18:30:38.112Z,15.21
2024-05-09T18:33:07.473Z,15.14
2024-05-09T18:35:35.974Z,15.08
2024-05-09T18:38:03.617Z,15.02
2024-05-09T18:40:34.631Z,14.97
2024-05-09T18:43:05.643Z,14.91
2024-05-09T18:45:34.042Z,14.86
2024-05-09T18:48:01.303Z,14.79
2024-05-09T18:50:34.676Z,14.72
2024-05-09T18:53:09.618Z,14.65
2024-05-09T18:55:36.371Z,14.58
2024-05-09T18:58:06.386Z,14.52
2024-05-09T19:00:36.983Z,14.45
2024-05-09T19:03:09.101Z,14.40
2024-05-09T19:05:38.440Z,14.34
2024-05-09T19:08:07.143Z,14.28
2024-05-09T19:10:35.516Z,14.22
2024-05-09T19:13:08.219Z,14.15
2024-05-09T19:15:39.520Z,14.08
2024-05-09T19:18:07.459Z,14.02
2024-05-09T19:20:36.336Z,13.95
2024-05-09T19:23:05.378Z,13.88
2024-05-09T19:25:32.824Z,13.83
2024-05-09T19:28:00.891Z,13.77
2024-05-09T19:30:36.890Z,13.71
2024-05-09T19:33:08.408Z,13.64
2024-05-09T19:35:35.692Z,13.58
2024-05-09T19:38:02.823Z,13.53
2024-05-09T19:40:32.352Z,13.46
2024-05-09T19:43:02.604Z,13.40
2024-05-09T19:45:30.542Z,13.34
2024-05-09T19:47:57.834Z,13.28
2024-05-09T19:50:32.592Z,13.22
2024-05-09T19:53:07.766Z,13.16
2024-05-09T19:55:34.812Z,13.11
2024-05-09T19:58:04.873Z,13.07
2024-05-09T20:00:39.928Z,13.02
2024-05-09T20:03:09.650Z,12.97
2024-05-09T20:05:37.797Z,12.91
2024-05-09T20:08:05.823Z,12.87
2024-05-09T20:10:35.220Z,12.82
2024-05-09T20:13:04.834Z,12.78
2024-05-09T20:15:34.536Z,12.75
2024-05-09T20:18:02.021Z,12.72
2024-05-09T20:20:37.026Z,12.70
2024-05-09T20:23:08.651Z,12.67
2024-05-09T20:25:35.630Z,12.65
2024-05-09T20:28:11.999Z,12.61
2024-05-09T20:30:39.026Z,12.57
2024-05-09T20:33:07.575Z,12.53
2024-05-09T20:35:35.701Z,12.50
2024-05-09T20:38:03.599Z,12.45
2024-05-09T20:40:35.552Z,12.40
2024-05-09T20:43:06.397Z,12.37
2024-05-09T20:45:34.188Z,12.33
2024-05-09T20:48:01.532Z,12.29
2024-05-09T20:50:36.722Z,12.24
2024-05-09T20:53:09.217Z,12.21
2024-05-09T20:55:36.552Z,12.18
2024-05-09T20:58:03.380Z,12.14
2024-05-09T21:00:38.796Z,12.12
2024-05-09T21:03:10.166Z,12.08
2024-05-09T21:05:37.346Z,12.07
2024-05-09T21:08:04.667Z,12.06
2024-05-09T21:10:33.457Z,12.07
2024-05-09T21:13:03.102Z,12.06
2024-05-09T21:15:31.229Z,12.03
2024-05-09T21:17:58.619Z,12.02
2024-05-09T21:20:31.235Z,12.00
2024-05-09T21:23:00.317Z,11.96
2024-05-09T21:25:27.221Z,11.92
2024-05-09T21:27:54.497Z,11.87
2024-05-09T21:30:31.858Z,11.84
2024-05-09T21:33:12.686Z,11.80
2024-05-09T21:35:42.349Z,11.76
2024-05-09T21:38:09.916Z,11.72
2024-05-09T21:40:37.944Z,11.69
2024-05-09T21:43:06.835Z,11.68
2024-05-09T21:45:35.168Z,11.68
2024-05-09T21:48:06.316Z,11.67
2024-05-09T21:50:39.829Z,11.65
2024-05-09T21:53:10.399Z,11.64
2024-05-09T21:55:37.300Z,11.62
2024-05-09T21:58:04.386Z,11.58
2024-05-09T22:00:36.924Z,11.56
2024-05-09T22:03:10.293Z,11.51
2024-05-09T22:05:41.376Z,11.49
2024-05-09T22:08:08.302Z,11.48
2024-05-09T22:10:36.844Z,11.44
2024-05-09T22:13:08.522Z,11.39
2024-05-09T22:15:37.656Z,11.35
2024-05-09T22:18:07.455Z,11.32
2024-05-09T22:20:38.254Z,11.31
2024-05-09T22:23:07.680Z,11.30
2024-05-09T22:25:35.239Z,11.28
2024-05-09T22:28:03.066Z,11.25
2024-05-09T22:30:36.092Z,11.23
2024-05-09T22:33:11.328Z,11.21
2024-05-09T22:35:40.072Z,11.20
2024-05-09T22:38:07.244Z,11.19
2024-05-09T22:40:44.838Z,11.18
2024-05-09T22:43:23.804Z,11.13
2024-05-09T22:45:55.554Z,11.09
2024-05-09T22:48:23.814Z,11.07
2024-05-09T22:50:51.739Z,11.07
2024-05-09T22:53:18.895Z,11.07
2024-05-09T22:55:45.843Z,11.05
2024-05-09T22:58:12.666Z,11.02
2024-05-09T23:00:39.798Z,11.00
2024-05-09T23:03:06.749Z,10.97
2024-05-09T23:05:33.746Z,10.96
2024-05-09T23:08:01.974Z,10.96
2024-05-09T23:10:35.537Z,10.95
2024-05-09T23:13:05.254Z,10.92
2024-05-09T23:15:32.125Z,10.87
2024-05-09T23:17:59.320Z,10.83
2024-05-09T23:20:33.847Z,10.81
2024-05-09T23:23:06.082Z,10.77
2024-05-09T23:25:32.953Z,10.69
2024-05-09T23:27:59.988Z,10.66
2024-05-09T23:32:56.665Z,10.57
2024-05-09T23:35:23.401Z,10.52
2024-05-09T23:37:50.285Z,10.48
2024-05-09T23:40:19.100Z,10.46
2024-05-09T23:42:49.549Z,10.42
2024-05-09T23:45:16.453Z,10.39
2024-05-09T23:47:43.567Z,10.37
2024-05-09T23:50:16.800Z,10.34
2024-05-09T23:52:50.605Z,10.30
2024-05-09T23:55:17.570Z,10.29
2024-05-09T23:57:44.663Z,10.29
